Time;durP1;ratioP1;P1;durP2;ratioP2;P2;SDS_P1;SDS_P2;PMS_P1;PMS_P2;Temp;Humidity;BMP_temperature;BMP_pressure;BME280_temperature;BME280_humidity;BME280_pressure;Samples;Min_cycle;Max_cycle;Signal;HPM_P1;HPM_P2
2023/09/29 00:00:15;;;;;;;4.23;3.90;;;;;;;;;;5011233;28;20553;-54
2023/09/29 00:02:41;;;;;;;5.37;4.90;;;;;;;;;;5011266;28;20178;-54
2023/09/29 00:05:09;;;;;;;6.63;4.80;;;;;;;;;;5011916;28;20175;-54
2023/09/29 00:07:35;;;;;;;6.40;4.63;;;;;;;;;;5012382;28;20621;-54
2023/09/29 00:10:01;;;;;;;5.23;4.53;;;;;;;;;;5010475;28;20206;-54
2023/09/29 00:12:27;;;;;;;5.00;4.57;;;;;;;;;;5012095;28;20190;-54
2023/09/29 00:14:53;;;;;;;5.63;4.77;;;;;;;;;;5012229;28;20595;-53
2023/09/29 00:17:19;;;;;;;4.63;4.23;;;;;;;;;;5011803;28;20179;-55
2023/09/29 00:19:45;;;;;;;4.30;3.90;;;;;;;;;;5009184;28;20190;-54
2023/09/29 00:22:11;;;;;;;4.80;4.33;;;;;;;;;;5010375;28;20183;-55
2023/09/29 00:24:37;;;;;;;4.27;3.87;;;;;;;;;;5008145;28;20665;-54
2023/09/29 00:27:03;;;;;;;5.60;5.03;;;;;;;;;;5007023;28;20578;-54
2023/09/29 00:29:29;;;;;;;5.57;4.60;;;;;;;;;;5011298;28;20286;-54
2023/09/29 00:31:57;;;;;;;4.67;4.17;;;;;;;;;;5010521;28;20216;-54
2023/09/29 00:34:23;;;;;;;4.80;4.27;;;;;;;;;;5011314;28;20175;-52
2023/09/29 00:36:51;;;;;;;6.70;4.47;;;;;;;;;;5009617;28;20546;-52
2023/09/29 00:39:18;;;;;;;4.57;3.93;;;;;;;;;;5010764;28;20206;-54
2023/09/29 00:41:44;;;;;;;4.87;4.47;;;;;;;;;;5011446;28;20654;-54
2023/09/29 00:44:10;;;;;;;5.63;4.53;;;;;;;;;;5011422;28;20585;-54
2023/09/29 00:46:37;;;;;;;4.70;4.30;;;;;;;;;;5010413;28;20411;-54
2023/09/29 00:49:04;;;;;;;6.77;4.60;;;;;;;;;;5010834;28;20723;-54
2023/09/29 00:51:31;;;;;;;5.90;4.40;;;;;;;;;;5009917;28;20706;-55
2023/09/29 00:53:57;;;;;;;6.23;4.43;;;;;;;;;;5010770;28;20222;-54
2023/09/29 00:56:23;;;;;;;5.10;4.60;;;;;;;;;;4989878;28;20277;-54
2023/09/29 00:58:49;;;;;;;5.07;3.87;;;;;;;;;;5001899;28;20184;-54
2023/09/29 01:01:15;;;;;;;5.20;4.73;;;;;;;;;;4992238;28;20186;-52
2023/09/29 01:03:41;;;;;;;4.20;3.90;;;;;;;;;;5003851;28;20197;-52
2023/09/29 01:06:08;;;;;;;5.20;4.70;;;;;;;;;;5009236;28;20178;-52
2023/09/29 01:08:35;;;;;;;4.90;4.37;;;;;;;;;;5007295;28;20678;-52
2023/09/29 01:11:04;;;;;;;5.33;4.83;;;;;;;;;;5007244;28;20173;-53
2023/09/29 01:13:30;;;;;;;5.03;4.53;;;;;;;;;;5011003;28;20528;-53
2023/09/29 01:15:56;;;;;;;5.77;5.10;;;;;;;;;;5009645;28;20269;-53
2023/09/29 01:18:22;;;;;;;5.10;4.60;;;;;;;;;;5010114;28;20269;-53
2023/09/29 01:20:49;;;;;;;4.57;4.17;;;;;;;;;;5008459;28;20245;-53
2023/09/29 01:23:15;;;;;;;4.80;4.27;;;;;;;;;;5005578;28;20185;-53
2023/09/29 01:25:41;;;;;;;6.03;4.33;;;;;;;;;;5008626;28;20279;-53
2023/09/29 01:28:08;;;;;;;4.20;3.80;;;;;;;;;;5007323;28;20200;-53
2023/09/29 01:30:34;;;;;;;4.33;3.57;;;;;;;;;;5009420;28;20182;-53
2023/09/29 01:33:00;;;;;;;4.60;4.20;;;;;;;;;;5009433;28;20210;-52
2023/09/29 01:35:30;;;;;;;4.27;3.87;;;;;;;;;;5010101;28;20177;-53
2023/09/29 01:37:59;;;;;;;4.07;3.73;;;;;;;;;;5009378;28;20206;-50
2023/09/29 01:40:25;;;;;;;5.80;4.50;;;;;;;;;;5009306;28;20262;-50
2023/09/29 01:42:51;;;;;;;4.80;4.30;;;;;;;;;;5008943;28;20282;-51
2023/09/29 01:45:18;;;;;;;4.20;3.80;;;;;;;;;;5009133;28;20183;-51
2023/09/29 01:47:45;;;;;;;5.20;3.40;;;;;;;;;;5009429;28;20545;-51
2023/09/29 01:50:12;;;;;;;4.17;3.77;;;;;;;;;;5008830;28;20178;-51
2023/09/29 01:52:39;;;;;;;4.63;4.23;;;;;;;;;;5009562;28;20187;-52
2023/09/29 01:55:15;;;;;;;4.17;3.70;;;;;;;;;;4990899;28;20170;-51
2023/09/29 01:57:42;;;;;;;4.40;4.00;;;;;;;;;;5008420;28;20646;-51
2023/09/29 02:00:14;;;;;;;4.53;4.17;;;;;;;;;;5003310;28;20222;-51
2023/09/29 02:02:41;;;;;;;4.50;4.13;;;;;;;;;;5008931;28;20261;-51
2023/09/29 02:05:09;;;;;;;4.23;3.83;;;;;;;;;;4985359;28;20573;-52
2023/09/29 02:07:36;;;;;;;4.23;3.90;;;;;;;;;;5008866;28;20626;-52
2023/09/29 02:10:02;;;;;;;4.53;3.70;;;;;;;;;;5009354;28;20770;-52
2023/09/29 02:12:29;;;;;;;3.90;3.60;;;;;;;;;;5008817;28;20246;-52
2023/09/29 02:14:55;;;;;;;4.03;3.63;;;;;;;;;;5008146;28;20685;-51
2023/09/29 02:17:21;;;;;;;4.07;3.77;;;;;;;;;;5009524;28;20179;-51
2023/09/29 02:19:47;;;;;;;3.80;3.50;;;;;;;;;;5007798;28;20190;-51
2023/09/29 02:22:16;;;;;;;4.30;3.90;;;;;;;;;;5008620;28;21100;-51
2023/09/29 02:24:43;;;;;;;7.20;3.77;;;;;;;;;;5006589;28;20194;-52
2023/09/29 02:27:10;;;;;;;3.93;3.63;;;;;;;;;;5003670;28;20270;-52
2023/09/29 02:29:36;;;;;;;4.00;3.63;;;;;;;;;;5008773;28;20302;-51
2023/09/29 02:32:02;;;;;;;3.73;3.43;;;;;;;;;;5008782;28;20547;-51
2023/09/29 02:34:28;;;;;;;3.77;3.23;;;;;;;;;;5008255;28;20175;-51
2023/09/29 02:36:54;;;;;;;4.00;3.60;;;;;;;;;;5007477;28;20182;-53
2023/09/29 02:39:21;;;;;;;4.57;4.17;;;;;;;;;;5008653;28;20182;-53
2023/09/29 02:41:48;;;;;;;4.47;4.03;;;;;;;;;;5007863;28;20218;-52
2023/09/29 02:44:14;;;;;;;4.00;3.70;;;;;;;;;;5008204;28;20178;-53
2023/09/29 02:46:40;;;;;;;3.73;3.43;;;;;;;;;;5004511;28;20225;-53
2023/09/29 02:49:10;;;;;;;3.83;3.43;;;;;;;;;;5009095;28;20623;-53
2023/09/29 02:51:36;;;;;;;4.23;3.93;;;;;;;;;;5006827;28;20180;-53
2023/09/29 02:54:03;;;;;;;4.90;4.00;;;;;;;;;;5007653;28;20191;-51
2023/09/29 02:56:30;;;;;;;5.00;4.50;;;;;;;;;;5007761;28;20180;-52
2023/09/29 02:58:56;;;;;;;4.07;3.70;;;;;;;;;;5006979;28;20192;-54
2023/09/29 03:01:22;;;;;;;5.23;4.73;;;;;;;;;;5004038;28;20197;-51
2023/09/29 03:03:48;;;;;;;4.07;3.67;;;;;;;;;;5002014;28;20559;-52
2023/09/29 03:06:16;;;;;;;5.40;3.83;;;;;;;;;;5006992;28;20612;-51
2023/09/29 03:08:42;;;;;;;3.93;3.53;;;;;;;;;;5008782;28;20212;-51
2023/09/29 03:11:09;;;;;;;4.17;3.77;;;;;;;;;;5007519;28;20208;-51
2023/09/29 03:13:37;;;;;;;3.97;3.57;;;;;;;;;;5008990;28;20239;-51
2023/09/29 03:16:03;;;;;;;5.77;4.57;;;;;;;;;;5007109;28;20203;-52
2023/09/29 03:18:30;;;;;;;6.13;4.60;;;;;;;;;;5008676;28;20211;-51
2023/09/29 03:20:57;;;;;;;3.70;3.40;;;;;;;;;;5008103;28;20196;-51
2023/09/29 03:23:24;;;;;;;4.40;4.00;;;;;;;;;;5008071;28;20230;-51
2023/09/29 03:25:50;;;;;;;4.20;3.80;;;;;;;;;;5008263;28;20192;-52
2023/09/29 03:28:16;;;;;;;4.00;3.63;;;;;;;;;;5007577;28;20205;-51
2023/09/29 03:30:42;;;;;;;4.50;4.10;;;;;;;;;;5007474;28;20180;-53
2023/09/29 03:33:10;;;;;;;5.23;4.67;;;;;;;;;;5006111;28;20196;-53
2023/09/29 03:35:36;;;;;;;4.07;3.77;;;;;;;;;;5007286;28;20666;-53
2023/09/29 03:38:04;;;;;;;5.23;4.23;;;;;;;;;;5006630;28;20195;-53
2023/09/29 03:40:31;;;;;;;4.20;3.80;;;;;;;;;;5008187;28;20187;-53
2023/09/29 03:42:58;;;;;;;4.53;4.13;;;;;;;;;;5008300;28;20613;-53
2023/09/29 03:45:25;;;;;;;4.13;3.53;;;;;;;;;;5006758;28;20616;-53
2023/09/29 03:47:52;;;;;;;4.43;3.87;;;;;;;;;;5008614;28;20557;-53
2023/09/29 03:50:18;;;;;;;4.07;3.67;;;;;;;;;;5006859;28;20606;-53
2023/09/29 03:52:45;;;;;;;4.40;3.50;;;;;;;;;;5007224;28;20185;-52
2023/09/29 03:55:12;;;;;;;4.23;3.67;;;;;;;;;;5005919;28;20618;-52
2023/09/29 03:57:41;;;;;;;4.23;3.63;;;;;;;;;;5008211;28;20279;-54
2023/09/29 04:00:12;;;;;;;4.30;3.80;;;;;;;;;;5007988;28;20623;-54
2023/09/29 04:02:39;;;;;;;4.87;4.37;;;;;;;;;;5002013;28;20240;-52
2023/09/29 04:05:06;;;;;;;4.43;4.03;;;;;;;;;;5004458;28;20266;-54
2023/09/29 04:07:34;;;;;;;4.27;3.87;;;;;;;;;;4980047;28;20214;-53
2023/09/29 04:10:02;;;;;;;4.70;4.30;;;;;;;;;;5003791;28;20206;-53
2023/09/29 04:12:28;;;;;;;4.17;3.77;;;;;;;;;;5005786;28;20195;-53
2023/09/29 04:14:55;;;;;;;3.87;3.57;;;;;;;;;;5004958;28;20234;-53
2023/09/29 04:17:21;;;;;;;4.80;4.17;;;;;;;;;;5006559;28;20179;-54
2023/09/29 04:19:47;;;;;;;4.50;3.53;;;;;;;;;;4995913;28;20191;-52
2023/09/29 04:22:13;;;;;;;4.70;4.23;;;;;;;;;;4990059;28;20160;-54
2023/09/29 04:24:40;;;;;;;5.63;3.63;;;;;;;;;;5009858;28;20650;-54
2023/09/29 04:27:06;;;;;;;4.43;4.03;;;;;;;;;;5007504;28;20529;-54
2023/09/29 04:29:32;;;;;;;5.20;4.70;;;;;;;;;;5009680;28;20200;-54
2023/09/29 04:31:58;;;;;;;4.17;3.77;;;;;;;;;;4994229;28;20276;-55
2023/09/29 04:34:24;;;;;;;4.13;3.63;;;;;;;;;;5009332;28;20206;-54
2023/09/29 04:36:50;;;;;;;4.30;3.40;;;;;;;;;;5005473;28;20206;-55
2023/09/29 04:39:17;;;;;;;3.53;3.27;;;;;;;;;;5010304;28;20302;-54
2023/09/29 04:41:43;;;;;;;4.13;3.43;;;;;;;;;;5005574;28;20186;-55
2023/09/29 04:44:09;;;;;;;4.07;3.70;;;;;;;;;;5012092;28;20252;-54
2023/09/29 04:46:35;;;;;;;3.97;3.50;;;;;;;;;;5011253;28;20532;-54
2023/09/29 04:49:03;;;;;;;4.10;3.40;;;;;;;;;;5011856;28;20238;-53
2023/09/29 04:51:31;;;;;;;4.93;3.67;;;;;;;;;;5009408;28;20237;-53
2023/09/29 04:53:58;;;;;;;4.13;3.80;;;;;;;;;;5012708;28;20186;-54
2023/09/29 04:56:24;;;;;;;3.53;3.23;;;;;;;;;;5011556;28;20182;-53
2023/09/29 04:58:50;;;;;;;4.20;3.77;;;;;;;;;;5011373;28;20214;-53
2023/09/29 05:01:19;;;;;;;5.17;3.87;;;;;;;;;;5013017;28;20201;-53
2023/09/29 05:03:47;;;;;;;3.40;3.10;;;;;;;;;;5011031;28;20182;-53
2023/09/29 05:06:14;;;;;;;3.70;3.40;;;;;;;;;;5010067;28;20535;-53
2023/09/29 05:08:40;;;;;;;3.53;3.23;;;;;;;;;;5009782;28;20256;-53
2023/09/29 05:11:06;;;;;;;3.83;3.37;;;;;;;;;;5011127;28;20647;-53
2023/09/29 05:13:32;;;;;;;3.30;2.83;;;;;;;;;;5010510;28;20190;-54
2023/09/29 05:16:01;;;;;;;3.70;3.37;;;;;;;;;;5000905;28;20176;-54
2023/09/29 05:18:27;;;;;;;4.90;3.33;;;;;;;;;;5010318;28;20277;-53
2023/09/29 05:20:57;;;;;;;3.90;3.60;;;;;;;;;;5012286;28;20250;-53
2023/09/29 05:23:23;;;;;;;3.37;3.07;;;;;;;;;;5010830;28;20231;-53
2023/09/29 05:25:49;;;;;;;3.43;3.13;;;;;;;;;;5010941;28;20187;-53
2023/09/29 05:28:15;;;;;;;4.70;3.37;;;;;;;;;;5010221;28;20465;-53
2023/09/29 05:30:53;;;;;;;3.30;3.00;;;;;;;;;;5010263;28;20198;-53
2023/09/29 05:33:19;;;;;;;5.10;3.60;;;;;;;;;;5010089;28;20193;-53
2023/09/29 05:35:48;;;;;;;4.47;3.07;;;;;;;;;;5010582;28;20181;-53
2023/09/29 05:38:14;;;;;;;3.97;3.47;;;;;;;;;;5009761;28;20644;-55
2023/09/29 05:40:40;;;;;;;4.53;3.20;;;;;;;;;;5008207;28;20239;-53
2023/09/29 05:43:10;;;;;;;4.87;3.10;;;;;;;;;;5007820;28;20217;-53
2023/09/29 05:45:39;;;;;;;3.83;3.43;;;;;;;;;;4995065;28;20682;-53
2023/09/29 05:48:06;;;;;;;3.70;3.40;;;;;;;;;;5010443;28;20764;-53
2023/09/29 05:50:32;;;;;;;2.80;2.60;;;;;;;;;;5009328;28;20175;-54
2023/09/29 05:52:59;;;;;;;3.87;3.33;;;;;;;;;;5009846;28;20189;-54
2023/09/29 05:55:25;;;;;;;3.80;2.93;;;;;;;;;;5011810;28;20161;-54
2023/09/29 05:57:51;;;;;;;3.37;3.00;;;;;;;;;;5011694;28;20175;-54
2023/09/29 06:00:17;;;;;;;3.50;2.70;;;;;;;;;;5011590;28;20163;-54
2023/09/29 06:02:44;;;;;;;3.37;3.07;;;;;;;;;;5011599;28;20274;-54
2023/09/29 06:05:11;;;;;;;5.47;2.97;;;;;;;;;;4993455;28;20178;-55
2023/09/29 06:07:37;;;;;;;3.23;2.97;;;;;;;;;;5011085;28;20186;-55
2023/09/29 06:10:04;;;;;;;3.67;3.30;;;;;;;;;;5011309;28;20190;-53
2023/09/29 06:12:30;;;;;;;3.80;3.10;;;;;;;;;;5011665;28;20174;-53
2023/09/29 06:14:56;;;;;;;3.30;2.80;;;;;;;;;;5011304;28;20234;-54
2023/09/29 06:17:23;;;;;;;4.57;3.33;;;;;;;;;;5011519;28;20183;-52
2023/09/29 06:19:49;;;;;;;3.60;3.30;;;;;;;;;;5011363;28;20178;-54
2023/09/29 06:22:15;;;;;;;3.60;3.30;;;;;;;;;;5010754;28;20245;-54
2023/09/29 06:24:44;;;;;;;3.93;3.60;;;;;;;;;;5011330;28;20186;-54
2023/09/29 06:27:11;;;;;;;3.77;3.20;;;;;;;;;;5011348;28;20261;-54
2023/09/29 06:29:39;;;;;;;5.00;3.20;;;;;;;;;;5011177;28;20792;-54
2023/09/29 06:32:06;;;;;;;4.05;3.40;;;;;;;;;;5010579;28;20538;-54
2023/09/29 06:34:32;;;;;;;4.00;3.37;;;;;;;;;;5011398;28;20162;-54
2023/09/29 06:36:58;;;;;;;3.40;3.13;;;;;;;;;;5010241;28;20191;-54
2023/09/29 06:39:24;;;;;;;5.53;3.20;;;;;;;;;;5011435;28;20161;-54
2023/09/29 06:41:50;;;;;;;4.47;2.93;;;;;;;;;;5010888;28;20187;-54
2023/09/29 06:44:16;;;;;;;3.47;3.17;;;;;;;;;;5010930;28;20171;-54
2023/09/29 06:46:42;;;;;;;3.80;2.90;;;;;;;;;;5010976;28;20478;-54
2023/09/29 06:49:08;;;;;;;3.90;2.83;;;;;;;;;;5011050;28;20197;-54
2023/09/29 06:51:34;;;;;;;4.17;3.47;;;;;;;;;;5009475;28;20676;-54
2023/09/29 06:54:01;;;;;;;3.63;3.33;;;;;;;;;;5010756;28;20166;-54
2023/09/29 06:56:30;;;;;;;5.13;2.80;;;;;;;;;;5010860;28;20155;-54
2023/09/29 06:58:56;;;;;;;3.43;3.13;;;;;;;;;;5010544;28;20215;-54
2023/09/29 07:01:22;;;;;;;3.43;2.77;;;;;;;;;;5010482;28;20635;-54
2023/09/29 07:03:48;;;;;;;4.07;3.20;;;;;;;;;;5011020;28;20639;-54
2023/09/29 07:06:15;;;;;;;5.17;3.13;;;;;;;;;;5008658;28;20171;-54
2023/09/29 07:08:41;;;;;;;3.37;3.13;;;;;;;;;;5010370;28;20247;-54
2023/09/29 07:11:08;;;;;;;3.90;3.60;;;;;;;;;;5010427;28;20175;-54
2023/09/29 07:13:34;;;;;;;5.33;3.07;;;;;;;;;;5009596;28;20232;-54
2023/09/29 07:16:00;;;;;;;3.73;3.40;;;;;;;;;;5010033;28;20172;-55
2023/09/29 07:18:26;;;;;;;4.03;3.57;;;;;;;;;;5010764;28;20176;-54
2023/09/29 07:20:53;;;;;;;6.13;3.30;;;;;;;;;;5010138;28;20573;-54
2023/09/29 07:23:23;;;;;;;5.67;3.43;;;;;;;;;;5009969;28;20330;-54
2023/09/29 07:25:49;;;;;;;4.80;3.30;;;;;;;;;;5010387;28;20642;-54
2023/09/29 07:28:20;;;;;;;4.80;3.40;;;;;;;;;;5010344;28;20629;-55
2023/09/29 07:30:47;;;;;;;5.93;3.07;;;;;;;;;;4992758;28;20541;-54
2023/09/29 07:33:13;;;;;;;3.60;3.30;;;;;;;;;;5010301;28;20567;-54
2023/09/29 07:35:40;;;;;;;3.80;3.40;;;;;;;;;;5009432;28;20241;-54
2023/09/29 07:38:06;;;;;;;4.53;3.27;;;;;;;;;;5009379;28;20166;-54
2023/09/29 07:40:33;;;;;;;4.07;3.43;;;;;;;;;;5010150;28;20188;-54
2023/09/29 07:42:59;;;;;;;4.27;3.33;;;;;;;;;;5009792;28;20206;-54
2023/09/29 07:45:25;;;;;;;4.37;3.30;;;;;;;;;;5010357;28;20261;-54
2023/09/29 07:47:51;;;;;;;4.20;3.23;;;;;;;;;;5010150;28;20736;-54
2023/09/29 07:50:19;;;;;;;3.70;3.40;;;;;;;;;;5009330;28;20667;-54
2023/09/29 07:52:45;;;;;;;3.83;3.47;;;;;;;;;;5008820;28;20796;-54
2023/09/29 07:55:12;;;;;;;3.70;3.40;;;;;;;;;;5009726;28;20266;-54
2023/09/29 07:57:38;;;;;;;26.97;4.13;;;;;;;;;;5009603;28;20702;-54
2023/09/29 08:00:05;;;;;;;3.90;3.33;;;;;;;;;;5009966;28;20182;-54
2023/09/29 08:02:31;;;;;;;3.93;3.33;;;;;;;;;;5009666;28;20179;-54
2023/09/29 08:04:58;;;;;;;4.97;3.80;;;;;;;;;;5009078;28;20734;-54
2023/09/29 08:07:27;;;;;;;3.67;3.20;;;;;;;;;;5008972;28;20686;-54
2023/09/29 08:09:54;;;;;;;5.23;3.70;;;;;;;;;;5009603;28;20216;-54
2023/09/29 08:12:20;;;;;;;3.83;3.50;;;;;;;;;;5009419;28;20636;-54
2023/09/29 08:14:47;;;;;;;4.00;3.50;;;;;;;;;;5008903;28;20253;-54
2023/09/29 08:17:13;;;;;;;4.27;3.30;;;;;;;;;;5011305;28;20543;-54
2023/09/29 08:19:42;;;;;;;5.70;3.80;;;;;;;;;;5013485;28;20274;-54
2023/09/29 08:22:08;;;;;;;4.27;3.60;;;;;;;;;;5012670;28;20172;-54
2023/09/29 08:24:34;;;;;;;5.00;3.90;;;;;;;;;;5013580;28;20186;-54
2023/09/29 08:27:02;;;;;;;4.77;3.70;;;;;;;;;;5013168;28;20174;-54
2023/09/29 08:29:28;;;;;;;8.03;3.40;;;;;;;;;;5012905;28;20195;-54
2023/09/29 08:31:55;;;;;;;5.17;3.53;;;;;;;;;;5013048;28;20173;-54
2023/09/29 08:34:21;;;;;;;4.67;4.07;;;;;;;;;;4995758;28;20178;-54
2023/09/29 08:36:47;;;;;;;4.10;3.50;;;;;;;;;;5012355;28;20167;-54
2023/09/29 08:39:13;;;;;;;3.83;3.30;;;;;;;;;;5013686;28;20163;-54
2023/09/29 08:41:48;;;;;;;4.03;3.47;;;;;;;;;;5012860;28;20196;-54
2023/09/29 08:44:19;;;;;;;5.90;3.97;;;;;;;;;;4995533;28;20186;-55
2023/09/29 08:46:47;;;;;;;5.13;3.63;;;;;;;;;;5012622;28;20282;-54
2023/09/29 08:49:15;;;;;;;3.70;3.40;;;;;;;;;;5012843;28;20202;-54
2023/09/29 08:51:46;;;;;;;4.63;3.30;;;;;;;;;;5012082;28;20278;-54
2023/09/29 08:54:12;;;;;;;8.10;4.57;;;;;;;;;;5013340;28;20171;-53
2023/09/29 08:56:39;;;;;;;3.50;3.20;;;;;;;;;;5013000;28;20185;-54
2023/09/29 08:59:05;;;;;;;4.53;3.77;;;;;;;;;;5012793;28;20187;-54
2023/09/29 09:01:31;;;;;;;4.10;3.50;;;;;;;;;;5012322;28;20223;-54
2023/09/29 09:03:58;;;;;;;4.73;3.67;;;;;;;;;;5013211;28;20698;-54
2023/09/29 09:06:24;;;;;;;4.97;4.47;;;;;;;;;;5011589;28;20167;-54
2023/09/29 09:08:51;;;;;;;4.83;3.53;;;;;;;;;;5012369;28;20369;-54
2023/09/29 09:11:19;;;;;;;5.13;3.70;;;;;;;;;;5012411;28;20257;-54
2023/09/29 09:13:58;;;;;;;4.33;3.60;;;;;;;;;;5012406;28;20201;-55
2023/09/29 09:16:25;;;;;;;4.20;3.80;;;;;;;;;;5011914;28;20787;-54
2023/09/29 09:18:51;;;;;;;3.53;3.23;;;;;;;;;;5002818;28;20188;-54
2023/09/29 09:21:17;;;;;;;4.27;3.20;;;;;;;;;;5011171;28;20183;-54
2023/09/29 09:23:43;;;;;;;5.63;3.87;;;;;;;;;;5012925;28;20168;-54
2023/09/29 09:26:16;;;;;;;4.50;3.77;;;;;;;;;;4994188;28;20183;-54
2023/09/29 09:28:42;;;;;;;4.40;3.73;;;;;;;;;;5011584;28;20230;-54
2023/09/29 09:31:09;;;;;;;4.20;3.57;;;;;;;;;;5011608;28;20172;-54
2023/09/29 09:33:35;;;;;;;6.03;4.73;;;;;;;;;;5012573;28;20331;-54
2023/09/29 09:36:06;;;;;;;4.20;3.80;;;;;;;;;;5012227;28;20167;-54
2023/09/29 09:38:32;;;;;;;4.00;3.70;;;;;;;;;;5011937;28;20278;-54
2023/09/29 09:40:59;;;;;;;4.17;3.47;;;;;;;;;;5012159;28;20178;-52
2023/09/29 09:43:28;;;;;;;4.60;3.57;;;;;;;;;;5011857;28;20184;-52
2023/09/29 09:46:02;;;;;;;3.97;3.47;;;;;;;;;;5012164;28;20165;-52
2023/09/29 09:48:34;;;;;;;4.87;3.60;;;;;;;;;;5012220;28;20558;-52
2023/09/29 09:51:02;;;;;;;3.13;2.90;;;;;;;;;;5011849;28;20163;-53
2023/09/29 09:53:31;;;;;;;3.67;3.30;;;;;;;;;;5011224;28;20174;-52
2023/09/29 09:56:10;;;;;;;2.93;2.73;;;;;;;;;;4994370;28;20175;-52
2023/09/29 09:58:36;;;;;;;3.90;3.50;;;;;;;;;;5012175;28;20661;-52
2023/09/29 10:01:03;;;;;;;3.97;2.90;;;;;;;;;;5011577;28;20653;-52
2023/09/29 10:03:30;;;;;;;5.40;3.40;;;;;;;;;;5012072;28;20207;-52
2023/09/29 10:05:56;;;;;;;5.13;3.20;;;;;;;;;;5011452;28;20197;-52
2023/09/29 10:08:24;;;;;;;4.77;3.30;;;;;;;;;;5010697;28;20178;-51
2023/09/29 10:10:50;;;;;;;3.50;3.20;;;;;;;;;;5011612;28;20221;-52
2023/09/29 10:13:16;;;;;;;3.57;2.80;;;;;;;;;;5011201;28;20194;-52
2023/09/29 10:15:43;;;;;;;3.53;3.20;;;;;;;;;;5011203;28;20705;-51
2023/09/29 10:18:17;;;;;;;5.17;3.07;;;;;;;;;;5011383;28;20669;-51
2023/09/29 10:20:44;;;;;;;4.77;3.20;;;;;;;;;;5011248;28;20220;-52
2023/09/29 10:23:13;;;;;;;3.47;3.00;;;;;;;;;;5010712;28;20171;-52
2023/09/29 10:25:42;;;;;;;4.53;3.17;;;;;;;;;;5011340;28;20585;-52
2023/09/29 10:28:08;;;;;;;3.67;3.23;;;;;;;;;;5011379;28;20508;-51
2023/09/29 10:30:35;;;;;;;4.67;3.53;;;;;;;;;;5011484;28;20266;-52
2023/09/29 10:33:05;;;;;;;4.33;3.40;;;;;;;;;;5011362;28;20186;-53
2023/09/29 10:35:33;;;;;;;3.37;3.07;;;;;;;;;;5010817;28;20187;-52
2023/09/29 10:38:12;;;;;;;4.60;3.30;;;;;;;;;;5010280;28;20178;-52
2023/09/29 10:40:38;;;;;;;3.33;3.00;;;;;;;;;;5010840;28;20179;-52
2023/09/29 10:43:05;;;;;;;3.57;3.27;;;;;;;;;;5010678;28;20170;-52
2023/09/29 10:45:40;;;;;;;4.00;3.40;;;;;;;;;;5010569;28;20285;-52
2023/09/29 10:48:09;;;;;;;4.77;3.33;;;;;;;;;;5010810;28;20165;-52
2023/09/29 10:50:59;;;;;;;5.73;3.50;;;;;;;;;;5010689;28;20168;-53
2023/09/29 10:53:25;;;;;;;3.97;3.17;;;;;;;;;;4982239;28;20175;-53
2023/09/29 10:55:52;;;;;;;3.90;3.27;;;;;;;;;;5010458;28;20175;-52
2023/09/29 10:58:18;;;;;;;5.77;3.70;;;;;;;;;;5010411;28;20163;-52
2023/09/29 11:00:47;;;;;;;4.17;3.50;;;;;;;;;;5010490;28;20202;-53
2023/09/29 11:03:13;;;;;;;5.90;3.53;;;;;;;;;;5010544;28;20174;-53
2023/09/29 11:05:49;;;;;;;4.70;3.57;;;;;;;;;;5010210;28;20179;-53
2023/09/29 11:08:19;;;;;;;5.60;3.80;;;;;;;;;;4999106;28;20171;-53
2023/09/29 11:10:55;;;;;;;5.10;3.47;;;;;;;;;;4990795;28;20200;-53
2023/09/29 11:13:21;;;;;;;3.97;3.50;;;;;;;;;;4990499;28;20179;-53
2023/09/29 11:15:47;;;;;;;5.43;3.37;;;;;;;;;;5008586;28;20588;-53
2023/09/29 11:18:13;;;;;;;6.40;3.40;;;;;;;;;;5009873;28;20163;-53
2023/09/29 11:20:42;;;;;;;6.07;4.20;;;;;;;;;;5010402;28;20261;-53
2023/09/29 11:23:11;;;;;;;5.73;3.50;;;;;;;;;;5009747;28;20641;-53
2023/09/29 11:25:54;;;;;;;6.17;4.13;;;;;;;;;;5009917;28;20206;-53
2023/09/29 11:28:20;;;;;;;6.17;3.77;;;;;;;;;;5010212;28;20163;-53
2023/09/29 11:30:47;;;;;;;4.50;3.50;;;;;;;;;;5009284;28;20182;-53
2023/09/29 11:33:15;;;;;;;4.57;3.70;;;;;;;;;;5009952;28;20183;-53
2023/09/29 11:35:48;;;;;;;6.10;3.93;;;;;;;;;;5009518;28;20174;-53
2023/09/29 11:38:20;;;;;;;6.33;4.23;;;;;;;;;;5009209;28;20535;-53
2023/09/29 11:40:48;;;;;;;4.83;4.00;;;;;;;;;;5009809;28;20165;-53
2023/09/29 11:43:14;;;;;;;5.70;4.30;;;;;;;;;;5009877;28;20186;-53
2023/09/29 11:45:41;;;;;;;4.60;3.60;;;;;;;;;;5010091;28;20319;-53
2023/09/29 11:48:07;;;;;;;7.77;4.27;;;;;;;;;;5010110;28;20267;-53
2023/09/29 11:50:34;;;;;;;6.40;3.93;;;;;;;;;;5009637;28;20703;-53
2023/09/29 11:53:03;;;;;;;6.50;4.30;;;;;;;;;;5012772;28;20529;-53
2023/09/29 11:55:29;;;;;;;9.53;4.93;;;;;;;;;;5015554;28;20178;-53
2023/09/29 11:57:56;;;;;;;6.27;4.20;;;;;;;;;;5014829;28;20615;-53
2023/09/29 12:00:22;;;;;;;8.23;4.33;;;;;;;;;;5014490;28;20539;-54
2023/09/29 12:02:48;;;;;;;7.37;3.97;;;;;;;;;;5004044;28;20229;-52
2023/09/29 12:05:14;;;;;;;6.73;4.37;;;;;;;;;;5013876;28;20597;-52
2023/09/29 12:07:40;;;;;;;7.50;4.43;;;;;;;;;;5009616;28;20190;-52
2023/09/29 12:10:06;;;;;;;6.47;4.40;;;;;;;;;;4996413;28;20191;-51
2023/09/29 12:12:32;;;;;;;8.53;4.83;;;;;;;;;;4996808;28;20271;-52
2023/09/29 12:14:59;;;;;;;4.93;4.03;;;;;;;;;;5002422;28;20686;-51
2023/09/29 12:17:25;;;;;;;12.27;4.17;;;;;;;;;;5016337;28;20517;-52
2023/09/29 12:19:51;;;;;;;8.03;4.27;;;;;;;;;;5009193;28;20191;-52
2023/09/29 12:22:18;;;;;;;8.40;5.53;;;;;;;;;;5009281;28;20179;-51
2023/09/29 12:24:45;;;;;;;7.97;4.33;;;;;;;;;;5015847;28;20185;-52
2023/09/29 12:27:11;;;;;;;6.97;4.50;;;;;;;;;;5014967;28;20663;-52
2023/09/29 12:29:37;;;;;;;7.37;4.17;;;;;;;;;;5015593;28;20280;-51
2023/09/29 12:32:03;;;;;;;5.77;3.90;;;;;;;;;;5005758;28;20189;-51
2023/09/29 12:34:32;;;;;;;8.07;4.23;;;;;;;;;;5014761;28;20171;-52
2023/09/29 12:37:02;;;;;;;6.57;4.43;;;;;;;;;;5014821;28;20207;-52
2023/09/29 12:39:28;;;;;;;6.73;4.03;;;;;;;;;;5015817;28;20183;-52
2023/09/29 12:41:55;;;;;;;5.63;3.90;;;;;;;;;;5012897;28;20187;-51
2023/09/29 12:44:22;;;;;;;7.13;3.90;;;;;;;;;;5008337;28;20519;-52
2023/09/29 12:46:49;;;;;;;7.43;4.30;;;;;;;;;;5011721;28;20673;-52
2023/09/29 12:49:15;;;;;;;6.83;4.20;;;;;;;;;;5011085;28;20352;-52
2023/09/29 12:51:42;;;;;;;4.47;3.33;;;;;;;;;;5014479;28;20197;-51
2023/09/29 12:54:08;;;;;;;6.50;4.63;;;;;;;;;;5014757;28;20185;-51
2023/09/29 12:56:34;;;;;;;6.73;3.87;;;;;;;;;;5015477;28;20181;-52
2023/09/29 12:59:00;;;;;;;5.90;4.17;;;;;;;;;;5016193;28;20190;-51
2023/09/29 13:01:26;;;;;;;7.37;4.00;;;;;;;;;;5014319;28;20541;-52
2023/09/29 13:03:52;;;;;;;4.57;3.23;;;;;;;;;;5011038;28;20193;-51
2023/09/29 13:06:18;;;;;;;6.00;4.10;;;;;;;;;;5003045;28;20213;-52
2023/09/29 13:08:44;;;;;;;5.17;3.67;;;;;;;;;;5008061;28;20740;-52
2023/09/29 13:11:17;;;;;;;6.53;3.90;;;;;;;;;;5011439;28;20391;-55
2023/09/29 13:13:44;;;;;;;8.00;5.67;;;;;;;;;;5011434;28;20202;-54
2023/09/29 13:16:11;;;;;;;7.70;5.07;;;;;;;;;;5011693;28;20199;-55
2023/09/29 13:18:38;;;;;;;8.00;4.67;;;;;;;;;;5011448;28;20173;-55
2023/09/29 13:21:04;;;;;;;9.07;5.50;;;;;;;;;;5009824;28;20272;-55
2023/09/29 13:23:30;;;;;;;7.40;4.77;;;;;;;;;;5007868;28;20265;-55
2023/09/29 13:25:56;;;;;;;6.40;4.63;;;;;;;;;;5008142;28;20176;-55
2023/09/29 13:28:22;;;;;;;8.00;5.10;;;;;;;;;;5006173;28;20653;-55
2023/09/29 13:30:49;;;;;;;8.03;4.97;;;;;;;;;;4993525;28;20615;-55
2023/09/29 13:33:15;;;;;;;6.60;4.77;;;;;;;;;;5009540;28;20163;-55
2023/09/29 13:35:41;;;;;;;5.40;3.50;;;;;;;;;;5004764;28;20221;-56
2023/09/29 13:38:07;;;;;;;4.80;3.53;;;;;;;;;;5010178;28;20741;-55
2023/09/29 13:40:33;;;;;;;4.10;3.13;;;;;;;;;;5011366;28;20171;-55
2023/09/29 13:42:59;;;;;;;4.23;3.00;;;;;;;;;;5011345;28;20175;-55
2023/09/29 13:45:25;;;;;;;3.70;3.07;;;;;;;;;;5011235;28;20175;-56
2023/09/29 13:47:51;;;;;;;3.73;2.60;;;;;;;;;;5006547;28;20226;-55
2023/09/29 13:50:18;;;;;;;3.00;2.30;;;;;;;;;;5010514;28;20242;-55
2023/09/29 13:52:44;;;;;;;3.13;2.50;;;;;;;;;;5010727;28;20269;-55
2023/09/29 13:55:11;;;;;;;4.83;2.63;;;;;;;;;;5011445;28;20174;-55
2023/09/29 13:57:37;;;;;;;5.63;4.03;;;;;;;;;;5011696;28;20156;-55
2023/09/29 14:00:04;;;;;;;4.77;3.57;;;;;;;;;;4993493;28;20202;-54
2023/09/29 14:02:30;;;;;;;4.13;2.70;;;;;;;;;;5011283;28;20634;-55
2023/09/29 14:04:56;;;;;;;3.67;2.80;;;;;;;;;;5007651;28;20182;-56
2023/09/29 14:07:23;;;;;;;5.10;2.70;;;;;;;;;;5001221;28;20643;-56
2023/09/29 14:09:49;;;;;;;3.00;2.70;;;;;;;;;;5006737;28;20199;-55
2023/09/29 14:12:18;;;;;;;5.37;3.00;;;;;;;;;;5009450;28;20539;-56
2023/09/29 14:14:47;;;;;;;4.17;2.80;;;;;;;;;;5009258;28;20234;-56
2023/09/29 14:17:13;;;;;;;3.97;2.80;;;;;;;;;;5008544;28;20639;-57
2023/09/29 14:19:39;;;;;;;3.83;3.00;;;;;;;;;;5010294;28;20579;-55
2023/09/29 14:22:05;;;;;;;3.23;2.93;;;;;;;;;;5007220;28;20681;-55
2023/09/29 14:24:32;;;;;;;4.00;3.03;;;;;;;;;;5005673;28;20187;-55
2023/09/29 14:26:58;;;;;;;3.93;3.03;;;;;;;;;;4999115;28;20240;-55
2023/09/29 14:29:24;;;;;;;3.93;2.93;;;;;;;;;;5004866;28;20539;-56
2023/09/29 14:31:51;;;;;;;4.20;2.73;;;;;;;;;;5010511;28;20230;-56
2023/09/29 14:34:17;;;;;;;3.83;2.50;;;;;;;;;;5004622;28;20259;-57
2023/09/29 14:36:44;;;;;;;3.37;2.77;;;;;;;;;;5007715;28;20239;-57
2023/09/29 14:39:10;;;;;;;3.20;2.90;;;;;;;;;;5010939;28;20658;-57
2023/09/29 14:41:41;;;;;;;4.43;3.27;;;;;;;;;;5010550;28;20172;-55